Time;durP1;ratioP1;P1;durP2;ratioP2;P2;SDS_P1;SDS_P2;PMS_P1;PMS_P2;Temp;Humidity;BMP_temperature;BMP_pressure;BME280_temperature;BME280_humidity;BME280_pressure;Samples;Min_cycle;Max_cycle;Signal;HPM_P1;HPM_P2
2021/12/07 00:01:54;;;;;;;14.25;7.28;;;2.20;99.90;;;;;;5093446;28;20115;-73
2021/12/07 00:04:20;;;;;;;15.48;7.43;;;2.20;99.90;;;;;;5094349;28;20016;-73
2021/12/07 00:06:46;;;;;;;15.55;7.40;;;2.20;99.90;;;;;;5094372;28;20028;-73
2021/12/07 00:09:15;;;;;;;16.33;8.40;;;2.20;99.90;;;;;;5094353;28;20035;-73
2021/12/07 00:11:42;;;;;;;15.10;7.80;;;2.20;99.90;;;;;;5093004;28;20031;-73
2021/12/07 00:14:21;;;;;;;15.65;7.97;;;2.20;99.90;;;;;;5092920;28;20476;-73
2021/12/07 00:16:47;;;;;;;15.35;8.95;;;2.20;99.90;;;;;;5093041;28;20035;-73
2021/12/07 00:19:13;;;;;;;15.13;7.72;;;2.20;99.90;;;;;;5094375;28;20456;-73
2021/12/07 00:21:42;;;;;;;16.92;7.65;;;2.20;99.90;;;;;;5092868;28;20028;-73
2021/12/07 00:24:09;;;;;;;18.38;8.38;;;2.20;99.90;;;;;;5092809;28;20028;-73
2021/12/07 00:26:34;;;;;;;19.33;9.02;;;2.20;99.90;;;;;;5092961;28;20036;-73
2021/12/07 00:29:02;;;;;;;19.23;8.95;;;2.10;99.90;;;;;;5092841;28;20031;-73
2021/12/07 00:31:37;;;;;;;19.73;8.32;;;2.20;99.90;;;;;;5092218;28;20127;-73
2021/12/07 00:36:32;;;;;;;17.80;8.73;;;2.10;99.90;;;;;;5093862;28;20131;-73
2021/12/07 00:38:57;;;;;;;18.17;8.70;;;2.00;99.90;;;;;;5092606;28;20032;-73
2021/12/07 00:41:23;;;;;;;18.83;8.70;;;2.10;99.90;;;;;;5093635;28;20082;-73
2021/12/07 00:43:49;;;;;;;18.48;8.82;;;2.00;99.90;;;;;;5092673;28;20118;-73
2021/12/07 00:46:15;;;;;;;16.55;8.18;;;2.00;99.90;;;;;;5093902;28;20032;-73
2021/12/07 00:48:40;;;;;;;15.85;7.90;;;1.90;99.90;;;;;;5092534;28;20468;-74
2021/12/07 00:51:07;;;;;;;16.77;8.38;;;1.90;99.90;;;;;;5092533;28;20024;-73
2021/12/07 00:53:33;;;;;;;21.13;9.07;;;1.90;99.90;;;;;;5093801;28;20035;-73
2021/12/07 00:56:03;;;;;;;16.13;8.15;;;1.90;99.90;;;;;;5093966;28;20036;-73
2021/12/07 00:58:29;;;;;;;20.85;8.40;;;1.90;99.90;;;;;;5094376;28;20020;-73
2021/12/07 01:01:02;;;;;;;16.05;8.40;;;1.90;99.90;;;;;;5096830;28;20020;-73
2021/12/07 01:06:27;;;;;;;16.52;8.23;;;1.90;99.90;;;;;;5097619;28;20035;-73
2021/12/07 01:09:17;;;;;;;17.92;8.02;;;1.90;99.90;;;;;;5096502;28;20055;-73
2021/12/07 01:25:37;;;;;;;17.58;8.30;;;1.70;99.90;;;;;;5097473;28;20066;-73
2021/12/07 01:28:14;;;;;;;19.45;8.10;;;1.70;99.90;;;;;;5097391;28;20056;-73
2021/12/07 02:01:53;;;;;;;17.70;7.95;;;1.80;99.90;;;;;;5076536;28;20036;-73
2021/12/07 02:04:18;;;;;;;17.30;7.95;;;1.70;99.90;;;;;;5076306;28;20024;-73
2021/12/07 02:06:44;;;;;;;16.73;7.50;;;1.80;99.90;;;;;;5076486;28;20028;-73
2021/12/07 02:09:11;;;;;;;15.60;6.90;;;1.80;99.90;;;;;;5076322;28;20027;-73
2021/12/07 02:11:45;;;;;;;16.55;7.55;;;1.80;99.90;;;;;;5075205;28;20445;-72
2021/12/07 02:14:15;;;;;;;16.33;7.38;;;1.70;99.90;;;;;;5058823;28;20106;-72
2021/12/07 02:16:42;;;;;;;15.30;7.90;;;1.70;99.90;;;;;;5058119;28;20037;-73
2021/12/07 02:19:07;;;;;;;15.40;7.10;;;1.70;99.90;;;;;;5058361;28;20449;-73
2021/12/07 02:21:33;;;;;;;18.08;6.70;;;1.60;99.90;;;;;;5058236;28;20056;-73
2021/12/07 02:23:59;;;;;;;14.88;7.80;;;1.60;99.90;;;;;;5076098;28;20054;-73
2021/12/07 02:26:24;;;;;;;18.20;8.02;;;1.60;99.90;;;;;;5076063;28;20350;-73
2021/12/07 02:28:52;;;;;;;14.77;7.18;;;1.70;99.90;;;;;;5058321;28;20453;-73
2021/12/07 02:31:19;;;;;;;16.42;7.05;;;1.70;99.90;;;;;;5081463;28;20399;-72
2021/12/07 02:33:44;;;;;;;17.35;8.32;;;1.70;99.90;;;;;;5095782;28;20414;-72
2021/12/07 02:36:10;;;;;;;14.93;6.57;;;1.60;99.90;;;;;;5094492;28;20036;-73
2021/12/07 02:38:36;;;;;;;16.77;7.60;;;1.60;99.90;;;;;;5094765;28;20028;-72
2021/12/07 02:41:21;;;;;;;17.13;7.60;;;1.60;99.90;;;;;;5096157;28;20016;-73
2021/12/07 02:43:47;;;;;;;16.75;7.18;;;1.60;99.90;;;;;;5094663;28;20028;-72
2021/12/07 02:46:12;;;;;;;18.15;7.45;;;1.60;99.90;;;;;;5094605;28;20039;-73
2021/12/07 02:48:39;;;;;;;20.80;8.35;;;1.60;99.90;;;;;;5094667;28;20460;-73
2021/12/07 02:51:05;;;;;;;15.98;7.10;;;1.60;99.90;;;;;;5095474;28;20415;-73
2021/12/07 02:53:33;;;;;;;17.70;7.72;;;1.60;99.90;;;;;;5095962;28;20099;-73
2021/12/07 02:56:00;;;;;;;22.00;6.63;;;1.60;99.90;;;;;;5094567;28;20074;-73
2021/12/07 02:58:26;;;;;;;19.92;8.50;;;1.60;99.90;;;;;;5094365;28;20077;-73
2021/12/07 03:01:02;;;;;;;15.55;7.82;;;1.60;99.90;;;;;;5094871;28;20028;-73
2021/12/07 03:03:32;;;;;;;22.70;8.38;;;1.60;99.90;;;;;;5094453;28;20384;-73
2021/12/07 03:27:37;;;;;;;17.52;7.28;;;1.60;99.90;;;;;;5095311;28;20038;-73
2021/12/07 03:30:06;;;;;;;;;;;1.60;99.90;;;;;;5092376;28;20076;-73
2021/12/07 03:32:32;;;;;;;20.25;7.97;;;1.60;99.90;;;;;;5074742;28;19904;-72
2021/12/07 03:34:58;;;;;;;21.48;7.68;;;1.60;99.90;;;;;;5074677;28;20499;-73
2021/12/07 03:37:24;;;;;;;16.13;7.13;;;1.60;99.90;;;;;;5074542;28;20447;-72
2021/12/07 03:39:49;;;;;;;16.27;7.32;;;1.60;99.90;;;;;;5074552;28;20024;-72
2021/12/07 03:42:15;;;;;;;17.15;8.05;;;1.60;99.90;;;;;;5074537;28;20095;-72
2021/12/07 03:44:41;;;;;;;18.20;7.72;;;1.50;99.90;;;;;;5056605;28;20067;-72
2021/12/07 03:47:06;;;;;;;19.13;8.93;;;1.60;99.90;;;;;;5056627;28;20115;-72
2021/12/07 03:49:32;;;;;;;21.33;8.95;;;1.60;99.90;;;;;;5056495;28;20021;-73
2021/12/07 03:51:58;;;;;;;20.60;8.80;;;1.60;99.90;;;;;;5074599;28;20095;-73
2021/12/07 03:54:24;;;;;;;18.75;8.00;;;1.50;99.90;;;;;;5056293;28;20029;-72
2021/12/07 03:56:49;;;;;;;19.30;8.23;;;1.50;99.90;;;;;;5056197;28;20028;-73
2021/12/07 03:59:15;;;;;;;21.05;8.55;;;1.50;99.90;;;;;;5056527;28;20020;-73
2021/12/07 04:01:41;;;;;;;19.70;7.93;;;1.50;99.90;;;;;;5073872;28;20033;-73
2021/12/07 04:04:07;;;;;;;17.30;7.65;;;1.50;99.90;;;;;;5056452;28;20452;-73
2021/12/07 04:06:32;;;;;;;23.30;9.50;;;1.50;99.90;;;;;;5056149;28;20029;-73
2021/12/07 04:08:58;;;;;;;16.75;7.65;;;1.50;99.90;;;;;;5073770;28;20024;-72
2021/12/07 04:11:24;;;;;;;16.67;8.52;;;1.50;99.90;;;;;;5056272;28;20031;-72
2021/12/07 04:13:49;;;;;;;19.52;8.50;;;1.50;99.90;;;;;;5074080;28;20457;-72
2021/12/07 04:16:16;;;;;;;18.92;7.75;;;1.50;99.90;;;;;;5056026;28;20087;-72
2021/12/07 04:18:42;;;;;;;17.13;8.07;;;1.50;99.90;;;;;;5056006;28;20498;-72
2021/12/07 04:21:08;;;;;;;21.73;10.00;;;1.50;99.90;;;;;;5056108;28;20029;-72
2021/12/07 04:23:35;;;;;;;20.15;8.63;;;1.50;99.90;;;;;;5056154;28;20106;-73
2021/12/07 04:26:03;;;;;;;22.15;8.77;;;1.50;99.90;;;;;;5074114;28;20020;-73
2021/12/07 04:28:29;;;;;;;26.60;10.07;;;1.60;99.90;;;;;;5055904;28;20363;-72
2021/12/07 04:30:54;;;;;;;18.50;9.13;;;1.60;99.90;;;;;;5072511;28;20043;-72
2021/12/07 04:33:20;;;;;;;19.38;9.10;;;1.60;99.90;;;;;;5092490;28;20467;-72
2021/12/07 04:35:48;;;;;;;20.65;8.48;;;1.60;99.90;;;;;;5093601;28;20024;-72
2021/12/07 04:38:14;;;;;;;17.88;8.52;;;1.60;99.90;;;;;;5092862;28;20028;-73
2021/12/07 04:40:41;;;;;;;22.00;9.18;;;1.60;99.90;;;;;;5094315;28;20547;-72
2021/12/07 04:43:07;;;;;;;17.63;8.52;;;1.60;99.90;;;;;;5094056;28;20462;-73
2021/12/07 04:59:10;;;;;;;18.90;9.25;;;1.50;99.90;;;;;;5095709;28;20035;-73
2021/12/07 05:01:36;;;;;;;23.30;8.77;;;1.50;99.90;;;;;;5095248;28;20020;-73
2021/12/07 05:04:10;;;;;;;20.63;8.63;;;1.50;99.90;;;;;;5092633;28;20024;-73
2021/12/07 05:06:41;;;;;;;19.65;9.30;;;1.50;99.90;;;;;;5093869;28;20024;-73
2021/12/07 05:14:30;;;;;;;20.02;8.35;;;1.40;99.90;;;;;;5093804;28;20024;-71
2021/12/07 05:38:50;;;;;;;21.58;9.40;;;1.50;99.90;;;;;;5001259;28;20046;-74
2021/12/07 05:41:16;;;;;;;22.42;8.77;;;1.50;99.90;;;;;;5073198;28;20032;-73
2021/12/07 05:43:42;;;;;;;22.60;9.15;;;1.50;99.90;;;;;;5073065;28;20025;-71
2021/12/07 05:46:08;;;;;;;21.00;8.40;;;1.50;99.90;;;;;;5074388;28;20103;-74
2021/12/07 05:48:34;;;;;;;20.38;8.88;;;1.50;99.90;;;;;;5076913;28;20070;-73
2021/12/07 05:51:00;;;;;;;17.88;9.30;;;1.50;99.90;;;;;;5076292;28;20060;-72
2021/12/07 05:53:25;;;;;;;22.15;9.45;;;1.50;99.90;;;;;;5076595;28;20381;-73
2021/12/07 05:55:51;;;;;;;18.88;8.63;;;1.50;99.90;;;;;;5076594;28;20024;-73
2021/12/07 05:58:19;;;;;;;19.40;9.85;;;1.50;99.90;;;;;;5076428;28;20024;-73
2021/12/07 06:00:46;;;;;;;17.85;8.77;;;1.50;99.90;;;;;;5058349;28;20025;-72
2021/12/07 06:03:12;;;;;;;20.52;10.00;;;1.50;99.90;;;;;;5058459;28;20457;-73
2021/12/07 06:05:40;;;;;;;24.17;9.18;;;1.50;99.90;;;;;;5058411;28;20021;-72
2021/12/07 06:08:06;;;;;;;24.10;10.13;;;1.40;99.90;;;;;;5076687;28;20457;-72
2021/12/07 06:10:33;;;;;;;20.30;9.35;;;1.40;99.90;;;;;;5076398;28;20025;-72
2021/12/07 06:12:58;;;;;;;13.93;7.35;;;1.40;99.90;;;;;;5076195;28;20032;-72
2021/12/07 06:15:27;;;;;;;22.13;9.48;;;1.40;99.90;;;;;;5058300;28;20020;-72
2021/12/07 06:17:53;;;;;;;20.98;9.68;;;1.40;99.90;;;;;;5057934;28;20089;-72
2021/12/07 06:20:20;;;;;;;17.13;8.40;;;1.40;99.90;;;;;;5076067;28;20040;-72
2021/12/07 06:22:46;;;;;;;17.48;7.63;;;1.40;99.90;;;;;;5058608;28;20020;-72
2021/12/07 06:25:13;;;;;;;21.88;9.07;;;1.30;99.90;;;;;;5076246;28;20036;-72
2021/12/07 06:27:39;;;;;;;23.30;9.63;;;1.30;99.90;;;;;;5057988;28;20054;-72
2021/12/07 06:30:07;;;;;;;19.40;8.57;;;1.20;99.90;;;;;;5057746;28;20045;-73
2021/12/07 06:32:33;;;;;;;19.60;8.80;;;1.20;99.90;;;;;;5057913;28;20048;-72
2021/12/07 06:34:58;;;;;;;22.88;9.85;;;1.10;99.90;;;;;;5076013;28;20056;-72
2021/12/07 06:37:24;;;;;;;20.15;8.48;;;1.10;99.90;;;;;;5075271;28;20033;-72
2021/12/07 06:39:50;;;;;;;21.73;8.90;;;1.00;99.90;;;;;;5075647;28;20053;-72
2021/12/07 06:42:15;;;;;;;18.45;10.05;;;1.00;99.90;;;;;;5075654;28;20028;-72
2021/12/07 06:44:41;;;;;;;18.17;8.63;;;1.00;99.90;;;;;;5075299;28;20496;-72
2021/12/07 06:47:07;;;;;;;21.50;8.75;;;1.00;99.90;;;;;;5057821;28;20024;-72
2021/12/07 06:49:33;;;;;;;17.35;8.18;;;1.00;99.90;;;;;;5057964;28;20025;-71
2021/12/07 06:51:59;;;;;;;21.15;8.60;;;1.00;99.90;;;;;;5075403;28;20032;-71
2021/12/07 06:54:25;;;;;;;19.02;9.80;;;1.00;99.90;;;;;;5075237;28;20035;-71
2021/12/07 06:56:54;;;;;;;17.70;8.98;;;1.10;99.90;;;;;;5074855;28;20105;-72
2021/12/07 06:59:20;;;;;;;21.90;9.18;;;1.10;99.90;;;;;;5057615;28;20056;-72
2021/12/07 07:01:47;;;;;;;18.25;9.15;;;1.10;99.90;;;;;;5057465;28;20036;-73
2021/12/07 07:04:14;;;;;;;18.80;8.48;;;1.20;99.90;;;;;;5075075;28;20025;-73
2021/12/07 07:06:41;;;;;;;18.52;9.02;;;1.20;99.90;;;;;;5057328;28;20079;-73
2021/12/07 07:09:08;;;;;;;24.17;9.32;;;1.20;99.90;;;;;;5075108;28;20033;-73
2021/12/07 07:11:34;;;;;;;23.42;9.90;;;1.30;99.90;;;;;;5075178;28;20028;-72
2021/12/07 07:14:18;;;;;;;27.45;10.18;;;1.30;99.90;;;;;;5075367;28;20059;-72
2021/12/07 07:16:44;;;;;;;24.10;10.13;;;1.30;99.90;;;;;;5074852;28;20056;-72
2021/12/07 07:19:09;;;;;;;22.33;9.68;;;1.40;99.90;;;;;;5057073;28;20124;-72
2021/12/07 07:21:35;;;;;;;20.17;8.93;;;1.40;99.90;;;;;;5074768;28;20035;-72
2021/12/07 07:24:02;;;;;;;24.13;9.05;;;1.50;99.90;;;;;;5056626;28;20111;-72
2021/12/07 07:26:28;;;;;;;22.02;9.80;;;1.50;99.90;;;;;;5074710;28;20028;-72
2021/12/07 07:28:54;;;;;;;17.25;8.15;;;1.60;99.90;;;;;;5074343;28;20024;-72
2021/12/07 07:31:19;;;;;;;21.85;10.18;;;1.60;99.90;;;;;;5074579;28;20444;-72
2021/12/07 07:33:45;;;;;;;21.25;10.15;;;1.60;99.90;;;;;;5056845;28;20024;-72
2021/12/07 07:36:11;;;;;;;22.73;9.57;;;1.70;99.90;;;;;;5074659;28;20044;-72
2021/12/07 07:38:36;;;;;;;22.95;10.10;;;1.70;99.90;;;;;;5074222;28;20036;-72
2021/12/07 07:41:03;;;;;;;27.67;10.93;;;1.70;99.90;;;;;;5057261;28;20605;-72
2021/12/07 07:43:29;;;;;;;24.98;10.43;;;1.70;99.90;;;;;;5074120;28;20025;-72
2021/12/07 07:45:55;;;;;;;21.83;9.88;;;1.80;99.90;;;;;;5056346;28;20031;-73
2021/12/07 07:48:22;;;;;;;23.48;9.48;;;1.80;99.90;;;;;;5074268;28;20032;-72
2021/12/07 07:50:50;;;;;;;20.15;10.30;;;1.80;99.90;;;;;;5056017;28;20021;-73
2021/12/07 07:53:16;;;;;;;22.77;9.45;;;1.80;99.90;;;;;;5056313;28;20036;-72
2021/12/07 07:55:42;;;;;;;19.35;9.20;;;1.80;99.90;;;;;;5074093;28;20111;-72
2021/12/07 07:58:09;;;;;;;20.58;8.85;;;1.70;99.90;;;;;;5074136;28;20078;-73
2021/12/07 08:00:36;;;;;;;21.27;10.02;;;1.70;99.90;;;;;;5074096;28;20456;-72
2021/12/07 08:03:03;;;;;;;20.70;8.45;;;1.70;99.90;;;;;;5074361;28;20107;-72
2021/12/07 08:05:29;;;;;;;21.75;9.32;;;1.70;99.90;;;;;;5056073;28;20142;-72
2021/12/07 08:07:55;;;;;;;19.88;9.00;;;1.70;99.90;;;;;;5055625;28;20025;-72
2021/12/07 08:10:28;;;;;;;21.70;9.60;;;1.80;99.90;;;;;;5055633;28;20039;-72
2021/12/07 08:12:58;;;;;;;20.77;8.90;;;1.90;99.90;;;;;;5056360;28;20032;-72
2021/12/07 08:15:26;;;;;;;19.63;8.70;;;1.90;99.90;;;;;;5055887;28;20141;-72
2021/12/07 08:17:52;;;;;;;22.42;8.98;;;2.10;99.90;;;;;;5073800;28;20472;-72
2021/12/07 08:20:18;;;;;;;20.55;9.45;;;2.30;99.90;;;;;;5073573;28;20519;-72
2021/12/07 08:22:44;;;;;;;22.30;9.40;;;2.70;99.90;;;;;;5055864;28;20528;-72
2021/12/07 08:25:10;;;;;;;18.08;7.82;;;3.10;99.90;;;;;;5055967;28;20119;-72
2021/12/07 08:27:35;;;;;;;17.92;8.77;;;3.30;99.90;;;;;;5073455;28;20028;-71
2021/12/07 08:30:06;;;;;;;16.30;8.05;;;3.20;99.90;;;;;;5055664;28;20066;-72
2021/12/07 08:32:32;;;;;;;17.52;8.43;;;3.00;99.90;;;;;;5073863;28;20039;-72
2021/12/07 08:34:58;;;;;;;18.48;8.75;;;2.90;99.90;;;;;;5074352;28;20020;-72
2021/12/07 08:37:23;;;;;;;19.48;8.27;;;2.90;99.90;;;;;;5055670;28;20461;-72
2021/12/07 08:39:49;;;;;;;21.73;8.25;;;2.90;99.90;;;;;;5055641;28;20104;-72
2021/12/07 08:42:15;;;;;;;19.83;9.38;;;3.10;99.90;;;;;;5073448;28;20031;-72
2021/12/07 08:44:42;;;;;;;22.48;8.60;;;3.40;99.90;;;;;;5073234;28;20201;-73
2021/12/07 08:47:07;;;;;;;19.58;8.38;;;3.90;99.90;;;;;;5055510;28;20028;-72
2021/12/07 08:49:34;;;;;;;21.60;9.68;;;4.40;99.90;;;;;;5055627;28;20136;-72
2021/12/07 08:52:00;;;;;;;20.08;9.25;;;4.90;99.90;;;;;;5055619;28;20025;-73
2021/12/07 08:59:35;;;;;;;15.73;7.60;;;4.70;99.90;;;;;;5055584;28;20111;-72
2021/12/07 08:59:56;;;;;;;19.38;8.38;;;4.00;99.90;;;;;;5073233;28;20083;-73
2021/12/07 09:02:24;;;;;;;16.80;7.80;;;3.70;99.90;;;;;;5055844;28;20459;-73
2021/12/07 09:04:53;;;;;;;18.67;8.73;;;3.60;99.90;;;;;;5055511;28;20120;-73
2021/12/07 09:07:19;;;;;;;17.25;7.10;;;3.40;99.90;;;;;;5055416;28;20042;-73
2021/12/07 09:09:44;;;;;;;18.98;7.95;;;3.40;99.90;;;;;;5055319;28;20469;-73
2021/12/07 09:12:13;;;;;;;18.30;7.88;;;3.30;99.90;;;;;;5055262;28;20025;-72
2021/12/07 09:14:41;;;;;;;20.35;8.43;;;3.20;99.90;;;;;;5073181;28;20025;-72
2021/12/07 09:17:07;;;;;;;20.20;8.05;;;3.20;99.90;;;;;;5055234;28;20431;-72
2021/12/07 09:19:33;;;;;;;17.95;8.10;;;3.20;99.90;;;;;;5073406;28;20017;-72
2021/12/07 09:21:59;;;;;;;22.00;8.68;;;3.70;99.90;;;;;;5058264;28;20071;-72
2021/12/07 09:24:27;;;;;;;20.58;9.10;;;4.60;99.90;;;;;;5076973;28;20024;-72
2021/12/07 09:26:53;;;;;;;18.75;8.20;;;5.40;99.90;;;;;;5076736;28;20055;-73
2021/12/07 09:29:19;;;;;;;19.27;8.48;;;6.00;99.90;;;;;;5059247;28;20028;-73
2021/12/07 09:31:45;;;;;;;19.90;8.45;;;6.30;99.90;;;;;;5089689;28;20051;-73
2021/12/07 09:34:11;;;;;;;17.10;9.15;;;6.40;99.90;;;;;;5095875;28;20024;-73
2021/12/07 09:36:40;;;;;;;19.23;8.93;;;6.60;99.90;;;;;;5095742;28;20082;-73
2021/12/07 09:39:08;;;;;;;17.45;9.02;;;6.60;99.90;;;;;;5095471;28;20044;-73
2021/12/07 09:41:53;;;;;;;23.08;9.05;;;6.70;99.90;;;;;;5096958;28;20031;-72
2021/12/07 09:44:19;;;;;;;15.45;8.10;;;6.50;99.90;;;;;;5097024;28;20016;-72
2021/12/07 09:46:45;;;;;;;20.48;8.98;;;6.40;99.90;;;;;;5096887;28;20039;-72
2021/12/07 09:49:11;;;;;;;17.90;7.85;;;6.40;99.90;;;;;;5095712;28;20028;-73
2021/12/07 09:51:38;;;;;;;18.42;8.95;;;6.20;99.90;;;;;;5096985;28;20369;-73
2021/12/07 09:54:06;;;;;;;17.90;8.10;;;6.00;99.90;;;;;;5095478;28;20122;-72
2021/12/07 09:56:32;;;;;;;20.60;9.88;;;6.20;99.90;;;;;;5096634;28;20361;-72
2021/12/07 09:59:00;;;;;;;19.58;9.00;;;6.20;99.90;;;;;;5096389;28;20028;-72
2021/12/07 10:01:27;;;;;;;15.32;7.80;;;5.80;99.90;;;;;;5096564;28;20032;-73
2021/12/07 10:03:53;;;;;;;19.23;8.57;;;5.20;99.90;;;;;;5096669;28;20110;-73
2021/12/07 10:06:20;;;;;;;16.30;8.80;;;4.80;99.90;;;;;;5096700;28;20057;-73
2021/12/07 10:08:48;;;;;;;26.90;9.05;;;4.60;99.90;;;;;;5095275;28;20062;-73
2021/12/07 10:11:14;;;;;;;18.73;8.07;;;4.50;99.90;;;;;;5096373;28;20548;-73
2021/12/07 10:13:42;;;;;;;21.38;8.65;;;4.30;99.90;;;;;;5096339;28;20032;-73
2021/12/07 10:16:11;;;;;;;20.45;8.15;;;4.20;99.90;;;;;;5096701;28;20035;-72
2021/12/07 10:18:38;;;;;;;16.10;8.23;;;4.20;99.90;;;;;;5096436;28;20460;-72
2021/12/07 10:21:13;;;;;;;17.70;8.77;;;4.10;99.90;;;;;;5095216;28;20115;-73
2021/12/07 10:23:41;;;;;;;17.42;8.52;;;4.10;99.90;;;;;;5095046;28;20024;-73
2021/12/07 10:26:15;;;;;;;26.05;8.50;;;4.00;99.90;;;;;;5094897;28;20028;-73
2021/12/07 10:28:42;;;;;;;21.90;9.55;;;3.90;99.90;;;;;;5095343;28;20043;-73
2021/12/07 10:31:10;;;;;;;24.35;9.43;;;3.80;99.90;;;;;;5094330;28;20052;-73
2021/12/07 10:33:43;;;;;;;24.75;9.82;;;3.70;99.90;;;;;;5095720;28;20024;-73
2021/12/07 10:36:19;;;;;;;23.25;8.90;;;3.60;99.90;;;;;;5094629;28;20494;-73
2021/12/07 10:39:00;;;;;;;22.52;9.18;;;3.60;99.90;;;;;;5096199;28;20026;-73
2021/12/07 10:41:27;;;;;;;19.23;8.82;;;3.60;99.90;;;;;;5095619;28;20375;-73
2021/12/07 10:43:59;;;;;;;21.08;9.57;;;3.80;99.90;;;;;;5094683;28;20027;-71
2021/12/07 10:46:36;;;;;;;23.30;9.45;;;4.60;99.90;;;;;;5095128;28;20061;-72
2021/12/07 10:49:41;;;;;;;35.50;12.70;;;5.40;99.90;;;;;;5095480;28;20024;-72
2021/12/07 10:52:06;;;;;;;30.05;12.77;;;5.90;99.90;;;;;;5044049;28;20039;-73
2021/12/07 10:54:49;;;;;;;23.65;11.50;;;6.30;99.90;;;;;;5094411;28;20024;-72
2021/12/07 10:57:22;;;;;;;22.88;10.52;;;6.00;99.90;;;;;;5095627;28;20032;-72
2021/12/07 10:59:54;;;;;;;24.77;10.32;;;5.80;99.90;;;;;;5094358;28;20056;-72
2021/12/07 11:02:22;;;;;;;20.60;9.23;;;6.10;99.90;;;;;;5094275;28;20458;-72
2021/12/07 11:04:49;;;;;;;19.98;8.80;;;6.30;99.90;;;;;;5094251;28;20046;-73
2021/12/07 11:07:21;;;;;;;18.80;9.48;;;6.00;99.90;;;;;;5095151;28;20119;-73
2021/12/07 11:09:56;;;;;;;17.42;9.07;;;5.60;99.90;;;;;;5095384;28;20035;-73
2021/12/07 11:12:26;;;;;;;17.33;9.07;;;5.30;99.90;;;;;;5095347;28;20024;-73
2021/12/07 11:14:57;;;;;;;18.25;8.77;;;5.20;99.90;;;;;;5095307;28;20368;-72
2021/12/07 11:17:31;;;;;;;20.63;9.60;;;5.40;99.90;;;;;;5093856;28;20482;-72
2021/12/07 11:19:57;;;;;;;20.40;10.00;;;5.40;99.90;;;;;;5095191;28;20028;-72
2021/12/07 11:22:27;;;;;;;19.02;8.90;;;5.40;99.90;;;;;;5093801;28;20047;-72
2021/12/07 11:24:55;;;;;;;15.88;8.05;;;5.40;99.90;;;;;;5093704;28;20392;-72
2021/12/07 11:33:23;;;;;;;18.58;8.68;;;4.70;99.90;;;;;;5074796;28;20035;-73
2021/12/07 11:35:49;;;;;;;19.40;8.23;;;4.50;99.90;;;;;;5057199;28;20062;-72
2021/12/07 11:38:28;;;;;;;15.20;8.05;;;4.40;99.90;;;;;;5074168;28;20094;-72
2021/12/07 11:41:14;;;;;;;18.40;8.57;;;4.30;99.90;;;;;;5074514;28;20051;-72
2021/12/07 11:44:12;;;;;;;17.38;7.65;;;4.30;99.90;;;;;;5071020;28;20024;-72
2021/12/07 11:46:46;;;;;;;17.60;7.05;;;4.20;99.90;;;;;;5018556;28;20051;-72
2021/12/07 11:49:17;;;;;;;14.13;7.80;;;4.30;99.90;;;;;;5073189;28;20434;-73
2021/12/07 11:51:45;;;;;;;18.52;8.23;;;4.20;99.90;;;;;;5055904;28;20024;-72
2021/12/07 11:54:14;;;;;;;18.93;8.63;;;4.10;99.90;;;;;;5056307;28;20031;-73
2021/12/07 11:56:42;;;;;;;19.55;8.77;;;4.10;99.90;;;;;;5055716;28;20033;-73
2021/12/07 11:59:08;;;;;;;21.05;8.73;;;3.90;99.90;;;;;;5073737;28;20037;-73
2021/12/07 12:01:34;;;;;;;17.27;8.60;;;3.90;99.90;;;;;;5055563;28;20028;-73
2021/12/07 12:04:01;;;;;;;18.85;8.63;;;3.90;99.90;;;;;;5073843;28;20055;-73
2021/12/07 12:06:27;;;;;;;22.55;10.55;;;3.90;99.90;;;;;;5073507;28;20028;-71
2021/12/07 12:08:54;;;;;;;25.15;10.45;;;3.90;99.90;;;;;;5055438;28;20029;-71
2021/12/07 12:11:44;;;;;;;20.13;10.45;;;3.80;99.90;;;;;;5055185;28;20025;-71
2021/12/07 12:14:36;;;;;;;24.00;10.02;;;3.80;99.90;;;;;;5055457;28;20031;-70
2021/12/07 12:17:17;;;;;;;26.05;10.25;;;3.70;99.90;;;;;;5055627;28;20035;-71
2021/12/07 12:20:08;;;;;;;25.33;10.80;;;3.70;99.90;;;;;;5055053;28;20037;-71
2021/12/07 12:22:54;;;;;;;21.35;10.95;;;3.70;99.90;;;;;;5072654;28;20020;-71
2021/12/07 12:25:22;;;;;;;23.02;11.35;;;3.70;99.90;;;;;;5055587;28;20029;-71
2021/12/07 12:27:50;;;;;;;21.15;10.10;;;3.60;99.90;;;;;;5055829;28;20346;-70
2021/12/07 12:30:27;;;;;;;21.80;10.48;;;3.70;99.90;;;;;;5060680;28;20400;-71
2021/12/07 12:33:02;;;;;;;22.63;10.85;;;3.70;99.90;;;;;;5093108;28;20074;-70
2021/12/07 12:35:44;;;;;;;20.83;9.73;;;3.70;99.90;;;;;;5091841;28;20034;-71
2021/12/07 12:38:24;;;;;;;21.95;10.02;;;3.80;99.90;;;;;;5091567;28;20535;-70
2021/12/07 12:41:02;;;;;;;25.60;9.20;;;3.80;99.90;;;;;;5092080;28;20028;-71
2021/12/07 12:43:56;;;;;;;20.95;11.05;;;3.80;99.90;;;;;;5092940;28;20028;-71
2021/12/07 12:46:34;;;;;;;17.60;8.98;;;3.80;99.90;;;;;;5093921;28;20148;-71
2021/12/07 12:49:06;;;;;;;16.00;7.67;;;3.70;99.90;;;;;;5093007;28;20034;-71
2021/12/07 12:51:49;;;;;;;13.82;7.30;;;3.70;99.90;;;;;;5092004;28;20270;-71
2021/12/07 12:54:17;;;;;;;13.32;7.25;;;3.70;99.90;;;;;;5084062;28;20028;-72
2021/12/07 12:56:43;;;;;;;15.98;7.63;;;3.70;99.90;;;;;;5096032;28;20058;-71
2021/12/07 12:59:11;;;;;;;17.75;7.78;;;3.70;99.90;;;;;;5097889;28;20547;-71
2021/12/07 13:01:42;;;;;;;10.85;5.97;;;3.80;99.90;;;;;;5096252;28;20364;-71
2021/12/07 13:04:16;;;;;;;10.23;5.00;;;3.90;99.90;;;;;;5097141;28;20088;-72
2021/12/07 13:06:50;;;;;;;12.00;5.43;;;4.10;99.90;;;;;;5095669;28;20114;-71
2021/12/07 13:09:19;;;;;;;10.52;5.78;;;4.20;99.90;;;;;;5095848;28;20034;-71
2021/12/07 13:11:44;;;;;;;9.35;4.90;;;4.30;99.90;;;;;;5095975;28;20039;-70
2021/12/07 13:14:27;;;;;;;8.75;4.57;;;4.20;99.90;;;;;;5097806;28;20464;-71
2021/12/07 13:17:05;;;;;;;10.35;4.32;;;4.30;99.90;;;;;;5097013;28;20124;-71
2021/12/07 13:19:52;;;;;;;7.57;3.58;;;4.30;99.90;;;;;;5095938;28;20028;-71
2021/12/07 13:22:19;;;;;;;9.23;3.70;;;4.30;99.90;;;;;;5095365;28;20032;-72
2021/12/07 13:24:46;;;;;;;6.97;3.60;;;4.10;99.90;;;;;;5096001;28;20365;-72
2021/12/07 13:27:14;;;;;;;5.55;3.42;;;4.00;99.90;;;;;;5095650;28;20425;-73
2021/12/07 13:29:52;;;;;;;4.70;2.97;;;4.00;99.90;;;;;;5097423;28;20028;-73
2021/12/07 13:32:18;;;;;;;7.75;3.58;;;3.90;99.90;;;;;;5096527;28;20051;-73
2021/12/07 13:34:43;;;;;;;4.55;3.35;;;3.90;99.90;;;;;;5095474;28;20390;-74
2021/12/07 13:37:12;;;;;;;5.63;3.47;;;3.90;99.90;;;;;;5096882;28;20032;-72
2021/12/07 13:39:40;;;;;;;4.97;3.63;;;3.90;99.90;;;;;;5096405;28;20035;-71
2021/12/07 13:42:17;;;;;;;4.30;2.95;;;3.80;99.90;;;;;;5095751;28;20028;-73
2021/12/07 13:44:46;;;;;;;5.13;3.25;;;3.70;99.90;;;;;;5096247;28;20024;-72
2021/12/07 13:47:27;;;;;;;4.75;3.20;;;3.70;99.90;;;;;;5096320;28;20023;-70
2021/12/07 13:50:04;;;;;;;5.45;3.65;;;3.70;99.90;;;;;;5096403;28;20024;-72
2021/12/07 13:52:44;;;;;;;6.28;3.85;;;3.70;99.90;;;;;;5096352;28;20035;-70
2021/12/07 13:55:14;;;;;;;5.85;3.45;;;3.70;99.90;;;;;;5095470;28;20036;-68
2021/12/07 13:57:42;;;;;;;6.35;2.83;;;3.70;99.90;;;;;;5097242;28;20031;-69
2021/12/07 14:00:25;;;;;;;4.67;2.70;;;3.70;99.90;;;;;;5095929;28;20031;-69
2021/12/07 14:03:06;;;;;;;3.65;3.03;;;3.70;99.90;;;;;;5094866;28;20029;-69
2021/12/07 14:05:38;;;;;;;8.43;3.75;;;3.70;99.90;;;;;;5094754;28;20535;-69
2021/12/07 14:08:09;;;;;;;5.15;3.17;;;3.70;99.90;;;;;;5095606;28;20043;-69
2021/12/07 14:10:39;;;;;;;5.15;3.55;;;3.70;99.90;;;;;;5094626;28;20020;-69
2021/12/07 14:13:05;;;;;;;3.85;2.72;;;3.70;99.90;;;;;;5096269;28;20057;-69
2021/12/07 14:15:37;;;;;;;4.28;2.90;;;3.60;99.90;;;;;;5096111;28;20081;-69
2021/12/07 14:18:09;;;;;;;5.88;3.28;;;3.60;99.90;;;;;;5094472;28;20039;-68
2021/12/07 14:20:46;;;;;;;4.22;3.05;;;3.60;99.90;;;;;;5095672;28;20028;-68
2021/12/07 14:23:24;;;;;;;5.72;3.42;;;3.60;99.90;;;;;;5095851;28;20024;-68
2021/12/07 14:26:06;;;;;;;6.05;3.08;;;3.50;99.90;;;;;;5094095;28;20428;-69
2021/12/07 14:28:38;;;;;;;5.43;3.58;;;3.50;99.90;;;;;;5074657;28;20036;-69
2021/12/07 14:31:06;;;;;;;5.40;3.38;;;3.50;99.90;;;;;;5093355;28;20052;-69
2021/12/07 14:33:41;;;;;;;4.88;3.60;;;3.50;99.90;;;;;;5095425;28;20034;-69
2021/12/07 14:36:07;;;;;;;6.05;3.67;;;3.50;99.90;;;;;;5094870;28;20028;-69
2021/12/07 14:38:34;;;;;;;5.68;3.90;;;3.40;99.90;;;;;;5094135;28;20059;-68
2021/12/07 14:41:07;;;;;;;6.97;3.90;;;3.50;99.90;;;;;;5094361;28;20111;-72
2021/12/07 14:43:34;;;;;;;6.10;3.88;;;3.40;99.90;;;;;;5094295;28;20028;-71
2021/12/07 14:46:05;;;;;;;4.32;3.05;;;3.40;99.90;;;;;;5093941;28;20540;-69
2021/12/07 14:48:31;;;;;;;8.25;3.40;;;3.40;99.90;;;;;;5093914;28;20036;-69
2021/12/07 14:51:19;;;;;;;5.07;4.05;;;3.40;99.90;;;;;;5093934;28;20093;-69
2021/12/07 14:54:04;;;;;;;5.47;3.80;;;3.30;99.90;;;;;;5094841;28;20020;-69
2021/12/07 14:56:33;;;;;;;6.50;3.33;;;3.30;99.90;;;;;;5095840;28;20032;-69
2021/12/07 14:59:00;;;;;;;5.00;3.42;;;3.30;99.90;;;;;;5094814;28;20028;-69
2021/12/07 15:01:31;;;;;;;8.57;3.90;;;3.30;99.90;;;;;;5093665;28;20056;-69